Time;durP1;ratioP1;P1;durP2;ratioP2;P2;SDS_P1;SDS_P2;PMS_P1;PMS_P2;Temp;Humidity;BMP_temperature;BMP_pressure;BME280_temperature;BME280_humidity;BME280_pressure;Samples;Min_cycle;Max_cycle;Signal;HPM_P1;HPM_P2
2021/04/12 04:57:33;;;;;;;;;;;;;;;4.25;77.71;98201.34;1750089;77;20761;-60
2021/04/12 05:00:07;;;;;;;;;;;;;;;4.34;76.87;98198.86;1732220;80;20676;-65
2021/04/12 05:03:00;;;;;;;;;;;;;;;4.40;75.61;98195.48;1731663;80;20741;-65
2021/04/12 05:05:40;;;;;;;;;;;;;;;4.49;75.27;98203.92;1717587;81;21867;-64
2021/04/12 05:08:28;;;;;;;;;;;;;;;4.54;75.49;98197.66;1728478;81;20479;-62
2021/04/12 05:11:12;;;;;;;;;;;;;;;4.54;76.01;98193.75;1735264;80;20391;-64
2021/04/12 05:14:16;;;;;;;;;;;;;;;4.59;76.27;98194.77;1740960;80;20587;-64
2021/04/12 05:17:14;;;;;;;;;;;;;;;4.68;77.45;98200.61;1740093;80;20281;-64
2021/04/12 05:20:16;;;;;;;;;;;;;;;4.80;77.70;98197.73;1718640;80;21907;-66
2021/04/12 05:22:50;;;;;;;;;;;;;;;4.88;77.80;98201.45;1737207;79;20480;-64
2021/04/12 05:25:22;;;;;;;;;;;;;;;4.95;76.18;98197.06;1691297;80;20465;-65
2021/04/12 05:27:56;;;;;;;;;;;;;;;5.04;74.10;98202.89;1743910;79;20755;-67
2021/04/12 05:30:53;;;;;;;;;;;;;;;5.15;73.35;98197.58;1673398;82;20708;-64
2021/04/12 05:33:41;;;;;;;;;;;;;;;5.26;72.61;98197.00;1725624;80;22055;-67
2021/04/12 05:36:29;;;;;;;;;;;;;;;5.37;72.16;98198.50;1717424;80;20426;-71
2021/04/12 05:39:03;;;;;;;;;;;;;;;5.46;71.10;98186.87;1728617;80;20573;-67
2021/04/12 05:41:52;;;;;;;;;;;;;;;5.53;71.29;98189.98;1720290;80;22075;-68
2021/04/12 05:44:42;;;;;;;;;;;;;;;5.59;71.08;98186.06;1729657;79;20580;-68
2021/04/12 05:47:30;;;;;;;;;;;;;;;5.69;70.68;98186.97;1691340;80;22474;-67
2021/04/12 05:50:11;;;;;;;;;;;;;;;5.79;69.90;98183.42;1734109;80;20600;-66
2021/04/12 05:52:54;;;;;;;;;;;;;;;5.90;69.58;98186.76;1731089;80;20553;-70
2021/04/12 05:55:29;;;;;;;;;;;;;;;6.00;69.54;98179.80;1721301;81;20530;-66
2021/04/12 05:58:32;;;;;;;;;;;;;;;6.12;68.89;98178.95;1717665;81;20481;-69
2021/04/12 06:01:26;;;;;;;;;;;;;;;6.21;67.79;98179.03;1718382;79;21926;-66
2021/04/12 06:04:17;;;;;;;;;;;;;;;6.32;66.95;98184.63;1722955;80;20129;-72
2021/04/12 06:06:51;;;;;;;;;;;;;;;6.43;66.77;98177.44;1728091;80;20635;-70
2021/04/12 06:09:59;;;;;;;;;;;;;;;6.54;66.45;98171.08;1743432;80;20518;-69
2021/04/12 06:12:49;;;;;;;;;;;;;;;6.64;65.99;98168.00;1744119;80;20752;-66
2021/04/12 06:15:38;;;;;;;;;;;;;;;6.75;65.48;98166.55;1745776;80;21915;-63
2021/04/12 06:18:41;;;;;;;;;;;;;;;6.84;65.14;98173.13;1737166;79;20407;-70
2021/04/12 06:21:44;;;;;;;;;;;;;;;6.93;64.99;98164.81;1733336;80;20522;-67
2021/04/12 06:24:42;;;;;;;;;;;;;;;7.03;64.41;98166.97;1666009;84;20782;-63
2021/04/12 06:27:33;;;;;;;;;;;;;;;7.09;64.03;98171.84;1663685;83;20490;-68
2021/04/12 06:30:22;;;;;;;;;;;;;;;7.15;63.29;98163.16;1701097;81;22169;-67
2021/04/12 06:33:17;;;;;;;;;;;;;;;7.22;63.13;98171.24;1717151;81;20464;-67
2021/04/12 06:35:50;;;;;;;;;;;;;;;7.28;63.38;98165.16;1726258;80;20497;-70
2021/04/12 06:38:55;;;;;;;;;;;;;;;7.36;63.24;98167.51;1733936;80;20524;-66
2021/04/12 06:41:42;;;;;;;;;;;;;;;7.43;63.11;98159.61;1733149;80;20735;-65
2021/04/12 06:44:36;;;;;;;;;;;;;;;7.52;62.91;98158.84;1743080;79;21936;-66
2021/04/12 06:47:20;;;;;;;;;;;;;;;7.61;62.94;98160.17;1730080;80;20480;-66
2021/04/12 06:50:00;;;;;;;;;;;;;;;7.71;63.16;98154.72;1729176;81;20505;-69
2021/04/12 06:52:48;;;;;;;;;;;;;;;7.84;63.05;98157.73;1693793;81;20546;-65
2021/04/12 06:55:19;;;;;;;;;;;;;;;7.96;63.16;98153.88;1724145;81;20471;-64
2021/04/12 06:58:18;;;;;;;;;;;;;;;8.09;62.73;98152.42;1704735;80;21846;-62
2021/04/12 07:01:09;;;;;;;;;;;;;;;8.23;62.61;98154.67;1689088;80;20304;-65
2021/04/12 07:04:20;;;;;;;;;;;;;;;8.43;62.82;98154.45;1705729;81;20480;-64
2021/04/12 07:06:56;;;;;;;;;;;;;;;8.67;62.52;98159.29;1709185;81;20715;-64
2021/04/12 07:09:46;;;;;;;;;;;;;;;8.97;61.77;98139.61;1726902;80;20316;-73
2021/04/12 07:12:44;;;;;;;;;;;;;;;9.25;60.75;98146.84;1729330;79;21044;-67
2021/04/12 07:15:37;;;;;;;;;;;;;;;9.52;60.03;98134.88;1715070;81;20589;-70
2021/04/12 07:18:21;;;;;;;;;;;;;;;9.83;59.94;98141.61;1702755;81;20567;-70
2021/04/12 07:21:15;;;;;;;;;;;;;;;10.08;58.77;98128.23;1695701;82;20550;-66
2021/04/12 07:24:06;;;;;;;;;;;;;;;10.31;57.66;98124.23;1721119;80;20672;-69
2021/04/12 07:27:04;;;;;;;;;;;;;;;10.55;57.05;98124.44;1684461;82;22451;-65
2021/04/12 07:29:52;;;;;;;;;;;;;;;10.78;56.02;98126.16;1679619;83;20517;-66
2021/04/12 07:32:24;;;;;;;;;;;;;;;10.97;55.63;98125.42;1685828;81;20211;-66
2021/04/12 07:35:13;;;;;;;;;;;;;;;11.10;54.10;98118.53;1702731;80;20543;-63
2021/04/12 07:37:50;;;;;;;;;;;;;;;11.19;54.12;98117.63;1685410;82;20722;-70
2021/04/12 07:40:52;;;;;;;;;;;;;;;11.31;54.69;98111.23;1857022;76;20686;-67
2021/04/12 07:43:57;;;;;;;;;;;;;;;11.34;54.70;98116.55;1820778;76;20478;-67
2021/04/12 07:46:44;;;;;;;;;;;;;;;11.44;54.93;98113.28;1826315;76;21892;-69
2021/04/12 07:49:56;;;;;;;;;;;;;;;11.60;54.77;98114.55;1845932;76;20563;-67
2021/04/12 07:53:00;;;;;;;;;;;;;;;11.67;54.20;98109.14;1828575;77;20465;-70
2021/04/12 07:55:46;;;;;;;;;;;;;;;11.86;54.28;98102.58;1824084;77;21905;-69
2021/04/12 07:58:33;;;;;;;;;;;;;;;11.97;53.70;98100.84;1825108;77;20505;-67
2021/04/12 08:01:22;;;;;;;;;;;;;;;12.07;53.69;98095.72;1825965;77;20569;-65
2021/04/12 08:04:20;;;;;;;;;;;;;;;12.15;52.92;98090.54;1813915;77;20476;-64
2021/04/12 08:07:08;;;;;;;;;;;;;;;12.28;53.56;98091.47;1826192;77;20477;-64
2021/04/12 08:09:46;;;;;;;;;;;;;;;12.39;52.79;98088.69;1838777;77;21876;-66
2021/04/12 08:12:39;;;;;;;;;;;;;;;12.54;52.35;98088.05;1831865;77;20503;-66
2021/04/12 08:15:28;;;;;;;;;;;;;;;12.67;52.55;98081.08;1826473;77;20485;-69
2021/04/12 08:18:14;;;;;;;;;;;;;;;12.83;52.89;98081.98;1825265;77;20474;-65
2021/04/12 08:21:15;;;;;;;;;;;;;;;13.01;52.62;98077.67;1825448;77;20602;-66
2021/04/12 08:24:09;;;;;;;;;;;;;;;13.18;53.20;98071.75;1818388;77;21846;-71
2021/04/12 08:27:01;;;;;;;;;;;;;;;13.40;52.13;98066.34;1831076;77;20589;-73
2021/04/12 08:30:06;;;;;;;;;;;;;;;13.56;51.66;98069.88;1823803;77;20486;-73
2021/04/12 08:32:56;;;;;;;;;;;;;;;13.67;51.07;98071.02;1818310;77;20699;-66
2021/04/12 08:35:45;;;;;;;;;;;;;;;13.81;51.06;98064.74;1822622;77;20489;-66
2021/04/12 08:38:25;;;;;;;;;;;;;;;13.96;50.76;98067.45;1830499;76;21888;-71
2021/04/12 08:41:32;;;;;;;;;;;;;;;14.11;50.00;98060.63;1827862;76;20532;-65
2021/04/12 08:44:12;;;;;;;;;;;;;;;14.24;50.44;98060.14;1834089;77;20481;-68
2021/04/12 08:47:19;;;;;;;;;;;;;;;14.40;49.42;98057.31;1825878;77;20474;-71
2021/04/12 08:50:07;;;;;;;;;;;;;;;14.51;48.74;98046.73;1825728;77;20581;-63
2021/04/12 08:52:45;;;;;;;;;;;;;;;14.61;49.40;98042.27;1821924;77;21785;-65
2021/04/12 08:55:40;;;;;;;;;;;;;;;14.72;48.79;98037.23;1833944;77;20486;-63
2021/04/12 08:58:29;;;;;;;;;;;;;;;14.80;48.05;98021.36;1812157;77;20301;-66
2021/04/12 09:01:21;;;;;;;;;;;;;;;14.85;47.93;98019.50;1816299;77;20577;-66
2021/04/12 09:03:56;;;;;;;;;;;;;;;14.92;48.52;98023.20;1825077;77;20565;-64
2021/04/12 09:07:02;;;;;;;;;;;;;;;15.02;47.70;98025.05;1820889;77;21896;-71
2021/04/12 09:09:54;;;;;;;;;;;;;;;15.12;47.18;98021.09;1827937;77;20473;-68
2021/04/12 09:12:51;;;;;;;;;;;;;;;15.19;46.58;98026.37;1802213;77;20512;-71
2021/04/12 09:15:57;;;;;;;;;;;;;;;15.28;46.16;98022.62;1821181;77;20500;-72
2021/04/12 09:18:54;;;;;;;;;;;;;;;15.38;47.39;98018.64;1834310;77;20625;-72
2021/04/12 09:21:48;;;;;;;;;;;;;;;15.59;46.79;98013.58;1823619;77;21823;-67
2021/04/12 09:24:36;;;;;;;;;;;;;;;15.76;46.03;98010.61;1836046;77;20620;-64
2021/04/12 09:27:29;;;;;;;;;;;;;;;15.82;45.79;98004.22;1825880;77;20480;-64
2021/04/12 09:30:04;;;;;;;;;;;;;;;15.84;45.81;98001.30;1721797;81;20657;-65
2021/04/12 09:33:17;;;;;;;;;;;;;;;15.89;44.92;98002.59;1852740;75;20606;-70
2021/04/12 09:36:22;;;;;;;;;;;;;;;15.92;45.07;98001.50;1832050;76;20483;-67
2021/04/12 09:39:15;;;;;;;;;;;;;;;16.10;46.24;97992.67;1822782;77;21958;-65
2021/04/12 09:42:00;;;;;;;;;;;;;;;16.21;44.77;97989.67;1803565;77;20468;-67
2021/04/12 09:44:43;;;;;;;;;;;;;;;16.26;43.34;97988.34;1815720;77;20713;-67
2021/04/12 09:47:23;;;;;;;;;;;;;;;16.28;44.27;97988.84;1820954;76;20592;-61
2021/04/12 09:49:55;;;;;;;;;;;;;;;16.34;44.16;97985.11;1829454;77;20614;-65
2021/04/12 09:52:41;;;;;;;;;;;;;;;16.48;44.15;97981.30;1829663;76;21819;-63
2021/04/12 09:55:22;;;;;;;;;;;;;;;16.63;42.44;97986.52;1790719;77;20511;-62
2021/04/12 09:58:16;;;;;;;;;;;;;;;16.72;42.22;97981.37;1837692;76;20484;-64
2021/04/12 10:01:09;;;;;;;;;;;;;;;16.82;42.97;97981.84;1810794;77;20473;-65
2021/04/12 10:03:53;;;;;;;;;;;;;;;16.99;41.45;97980.90;1812816;77;20564;-64
2021/04/12 10:06:28;;;;;;;;;;;;;;;17.07;41.85;97983.71;1822300;76;21922;-63
2021/04/12 10:09:34;;;;;;;;;;;;;;;17.14;42.39;97974.88;1820112;76;20862;-66
2021/04/12 10:12:30;;;;;;;;;;;;;;;17.23;41.82;97970.28;1822965;77;20359;-61
2021/04/12 10:15:05;;;;;;;;;;;;;;;17.33;40.67;97967.53;1822600;77;20607;-68
2021/04/12 10:17:42;;;;;;;;;;;;;;;17.41;41.08;97962.92;1825163;77;20525;-68
2021/04/12 10:20:13;;;;;;;;;;;;;;;17.54;41.41;97959.04;1820468;77;20750;-66
2021/04/12 10:23:00;;;;;;;;;;;;;;;17.71;40.09;97955.95;1823635;77;20492;-64
2021/04/12 10:26:04;;;;;;;;;;;;;;;17.78;39.34;97955.59;1826192;77;20213;-66
2021/04/12 10:28:42;;;;;;;;;;;;;;;17.80;40.04;97948.89;1816759;77;20556;-65
2021/04/12 10:31:14;;;;;;;;;;;;;;;17.90;40.68;97947.98;1819254;77;20679;-67
2021/04/12 10:33:51;;;;;;;;;;;;;;;17.96;38.95;97945.50;1827794;76;21683;-65
2021/04/12 10:36:28;;;;;;;;;;;;;;;17.91;39.96;97950.36;1816677;77;20415;-64
2021/04/12 10:39:08;;;;;;;;;;;;;;;17.92;40.33;97945.83;1817395;76;20476;-65
2021/04/12 10:41:42;;;;;;;;;;;;;;;17.96;40.29;97946.83;1810792;77;20601;-63
2021/04/12 10:44:17;;;;;;;;;;;;;;;17.96;39.50;97946.83;1823280;76;20659;-65
2021/04/12 10:46:58;;;;;;;;;;;;;;;17.92;40.40;97940.52;1818441;76;20742;-64
2021/04/12 10:49:36;;;;;;;;;;;;;;;17.95;40.83;97940.72;1820535;76;20537;-66
2021/04/12 10:52:29;;;;;;;;;;;;;;;18.02;40.24;97948.88;1829852;76;20462;-66
2021/04/12 10:55:18;;;;;;;;;;;;;;;18.01;39.98;97939.34;1818125;77;20397;-65
2021/04/12 10:57:58;;;;;;;;;;;;;;;18.01;40.06;97931.36;1818966;76;20677;-63
2021/04/12 11:00:51;;;;;;;;;;;;;;;18.05;40.01;97932.34;1766902;77;21916;-66
2021/04/12 11:03:34;;;;;;;;;;;;;;;18.09;39.44;97934.67;1827746;76;20480;-64
2021/04/12 11:06:24;;;;;;;;;;;;;;;18.14;39.54;97927.97;1815662;77;20488;-61
2021/04/12 11:09:17;;;;;;;;;;;;;;;18.16;39.26;97923.92;1819916;77;20470;-62
2021/04/12 11:11:51;;;;;;;;;;;;;;;18.18;38.95;97927.09;1832269;76;20616;-64
2021/04/12 11:14:36;;;;;;;;;;;;;;;18.21;38.94;97920.41;1815076;77;22361;-61
2021/04/12 11:17:17;;;;;;;;;;;;;;;18.25;39.17;97927.52;1817190;77;20591;-63
2021/04/12 11:19:52;;;;;;;;;;;;;;;18.29;39.14;97925.87;1822663;76;20408;-67
2021/04/12 11:22:42;;;;;;;;;;;;;;;18.34;38.98;97915.67;1825999;76;20253;-70
2021/04/12 11:25:22;;;;;;;;;;;;;;;18.39;38.01;97912.13;1821101;76;20627;-70
2021/04/12 11:28:04;;;;;;;;;;;;;;;18.40;38.40;97907.06;1823385;77;22034;-64
2021/04/12 11:30:54;;;;;;;;;;;;;;;18.34;38.55;97908.48;1796589;76;20575;-68
2021/04/12 11:33:38;;;;;;;;;;;;;;;18.27;39.13;97907.27;1782421;77;20563;-68
2021/04/12 11:36:13;;;;;;;;;;;;;;;18.18;38.54;97905.81;1771104;78;20567;-69
2021/04/12 11:38:47;;;;;;;;;;;;;;;18.05;38.58;97909.74;1790843;77;20689;-66
2021/04/12 11:41:27;;;;;;;;;;;;;;;17.87;38.45;97896.16;1784732;78;21884;-65
2021/04/12 11:43:58;;;;;;;;;;;;;;;17.75;38.82;97893.14;1785999;77;20295;-69
2021/04/12 11:46:53;;;;;;;;;;;;;;;17.68;39.18;97887.39;1789140;77;20495;-69
2021/04/12 11:49:31;;;;;;;;;;;;;;;17.64;40.07;97885.08;1790366;77;20300;-67
2021/04/12 11:52:11;;;;;;;;;;;;;;;17.63;40.04;97889.34;1787318;77;20582;-69
2021/04/12 11:54:46;;;;;;;;;;;;;;;17.61;39.84;97884.30;1793148;77;21801;-68
2021/04/12 11:57:46;;;;;;;;;;;;;;;17.58;39.75;97885.62;1783032;77;20942;-65
2021/04/12 12:00:18;;;;;;;;;;;;;;;17.58;39.59;97875.53;1795574;77;20477;-65
2021/04/12 12:03:17;;;;;;;;;;;;;;;17.63;40.28;97877.38;1786635;77;20612;-62
2021/04/12 12:06:06;;;;;;;;;;;;;;;17.73;39.96;97874.03;1787620;77;22608;-64
2021/04/12 12:08:56;;;;;;;;;;;;;;;17.93;39.92;97864.45;1789028;78;21774;-67
2021/04/12 12:11:33;;;;;;;;;;;;;;;18.15;39.85;97856.41;1784094;78;20301;-66
2021/04/12 12:14:07;;;;;;;;;;;;;;;18.41;39.40;97856.76;1758454;78;20542;-68
2021/04/12 12:16:43;;;;;;;;;;;;;;;18.60;39.57;97854.30;1791590;77;20423;-68
2021/04/12 12:19:30;;;;;;;;;;;;;;;18.76;39.14;97854.03;1773557;78;20539;-73
2021/04/12 12:22:13;;;;;;;;;;;;;;;18.91;38.64;97852.41;1788595;77;21747;-69
2021/04/12 12:24:47;;;;;;;;;;;;;;;19.01;37.44;97849.03;1788906;77;20406;-70
2021/04/12 12:27:37;;;;;;;;;;;;;;;18.97;37.52;97845.36;1791283;77;21101;-71
2021/04/12 12:30:20;;;;;;;;;;;;;;;18.85;37.13;97849.06;1792610;78;20309;-65
2021/04/12 12:33:04;;;;;;;;;;;;;;;18.67;37.74;97840.06;1802993;77;20599;-66
2021/04/12 12:35:53;;;;;;;;;;;;;;;18.53;37.50;97835.23;1811675;77;22138;-70
2021/04/12 12:38:40;;;;;;;;;;;;;;;18.43;37.32;97834.11;1818123;77;20593;-72
2021/04/12 12:41:19;;;;;;;;;;;;;;;18.36;37.98;97829.70;1816018;77;20515;-62
2021/04/12 12:43:48;;;;;;;;;;;;;;;18.34;37.97;97827.33;1816660;76;20384;-66
2021/04/12 12:46:28;;;;;;;;;;;;;;;18.37;38.17;97823.84;1826922;76;20635;-67
2021/04/12 12:49:11;;;;;;;;;;;;;;;18.43;38.12;97826.13;1816699;76;22005;-68
2021/04/12 12:51:41;;;;;;;;;;;;;;;18.61;38.48;97822.61;1811563;76;20548;-65
2021/04/12 12:54:19;;;;;;;;;;;;;;;18.81;38.79;97814.78;1817026;76;20389;-66
2021/04/12 12:56:47;;;;;;;;;;;;;;;18.97;37.78;97812.61;1817088;77;21377;-68
2021/04/12 12:59:25;;;;;;;;;;;;;;;19.15;37.55;97810.38;1812562;77;20481;-68
2021/04/12 13:01:54;;;;;;;;;;;;;;;19.35;37.62;97803.83;1814521;77;21930;-67
2021/04/12 13:04:27;;;;;;;;;;;;;;;19.57;36.82;97799.11;1823192;77;20485;-66
2021/04/12 13:06:57;;;;;;;;;;;;;;;19.67;36.36;97797.52;1818642;77;20573;-67
2021/04/12 13:09:32;;;;;;;;;;;;;;;19.74;36.91;97798.69;1816208;77;20140;-64
2021/04/12 13:12:13;;;;;;;;;;;;;;;19.81;36.60;97796.38;1813680;77;21046;-67
2021/04/12 13:14:45;;;;;;;;;;;;;;;19.87;36.16;97792.53;1820122;77;21874;-66
2021/04/12 13:17:20;;;;;;;;;;;;;;;19.92;36.72;97787.61;1809294;77;20553;-68
2021/04/12 13:19:52;;;;;;;;;;;;;;;19.96;36.98;97793.89;1818844;77;20474;-65
2021/04/12 13:22:24;;;;;;;;;;;;;;;19.97;35.81;97790.68;1823476;76;20796;-70
2021/04/12 13:24:52;;;;;;;;;;;;;;;19.99;35.26;97792.51;1815780;76;20708;-71
2021/04/12 13:27:23;;;;;;;;;;;;;;;19.97;35.18;97787.47;1820361;77;21876;-68
2021/04/12 13:29:56;;;;;;;;;;;;;;;19.97;35.45;97782.14;1817956;77;20477;-67
2021/04/12 13:32:31;;;;;;;;;;;;;;;19.99;35.54;97783.17;1820948;77;20493;-65
2021/04/12 13:35:11;;;;;;;;;;;;;;;19.94;35.36;97784.09;1826198;77;20764;-63
2021/04/12 13:37:49;;;;;;;;;;;;;;;19.84;35.74;97781.12;1815743;76;20595;-63
2021/04/12 13:40:43;;;;;;;;;;;;;;;19.81;36.32;97784.95;1819301;77;21938;-65
2021/04/12 13:43:11;;;;;;;;;;;;;;;19.79;36.43;97785.80;1819867;77;21016;-64
2021/04/12 13:45:42;;;;;;;;;;;;;;;19.80;35.71;97784.70;1803288;77;20611;-62
2021/04/12 13:48:22;;;;;;;;;;;;;;;19.84;36.16;97785.13;1811807;77;20401;-64
2021/04/12 13:51:08;;;;;;;;;;;;;;;19.92;35.67;97780.94;1824318;77;20638;-67
2021/04/12 13:53:51;;;;;;;;;;;;;;;19.97;35.58;97782.68;1811303;77;20683;-61
2021/04/12 13:56:22;;;;;;;;;;;;;;;19.97;36.23;97783.47;1793209;77;20487;-65
2021/04/12 13:59:18;;;;;;;;;;;;;;;20.00;35.64;97778.88;1823525;76;20416;-61
